createdAt,value
2019-05-15T00:00:21.736Z,7.26
2019-05-15T00:02:48.901Z,7.33
2019-05-15T00:05:18.664Z,7.30
2019-05-15T00:07:45.382Z,7.23
2019-05-15T00:10:12.921Z,7.24
2019-05-15T00:12:40.124Z,7.31
2019-05-15T00:15:09.409Z,7.34
2019-05-15T00:17:39.236Z,7.33
2019-05-15T00:20:06.798Z,7.35
2019-05-15T00:22:33.979Z,7.27
2019-05-15T00:25:01.696Z,7.22
2019-05-15T00:27:28.909Z,7.16
2019-05-15T00:29:57.923Z,7.12
2019-05-15T00:32:25.032Z,7.14
2019-05-15T00:34:52.239Z,7.12
2019-05-15T00:37:19.303Z,7.16
2019-05-15T00:39:48.428Z,7.27
2019-05-15T00:42:15.556Z,7.20
2019-05-15T00:44:42.836Z,7.17
2019-05-15T00:47:10.609Z,7.06
2019-05-15T00:49:38.350Z,6.93
2019-05-15T00:52:05.530Z,6.82
2019-05-15T00:54:32.658Z,6.70
2019-05-15T00:57:00.192Z,6.82
2019-05-15T00:59:29.942Z,6.81
2019-05-15T01:01:56.400Z,6.89
2019-05-15T01:04:23.581Z,6.94
2019-05-15T01:06:52.663Z,7.06
2019-05-15T01:09:19.877Z,7.07
2019-05-15T01:11:48.777Z,6.97
2019-05-15T01:14:18.460Z,6.96
2019-05-15T01:16:45.387Z,6.82
2019-05-15T01:19:14.969Z,6.74
2019-05-15T01:21:41.605Z,6.69
2019-05-15T01:24:08.747Z,6.77
2019-05-15T01:26:38.328Z,6.76
2019-05-15T01:29:05.039Z,6.60
2019-05-15T01:31:32.233Z,6.45
2019-05-15T01:33:59.727Z,6.35
2019-05-15T01:36:28.812Z,6.29
2019-05-15T01:38:58.302Z,6.21
2019-05-15T01:41:25.193Z,6.13
2019-05-15T01:43:52.680Z,6.09
2019-05-15T01:46:19.831Z,6.04
2019-05-15T01:48:49.133Z,6.06
2019-05-15T01:51:18.365Z,6.05
2019-05-15T01:53:47.870Z,6.04
2019-05-15T01:56:14.794Z,6.10
2019-05-15T01:58:42.232Z,6.14
2019-05-15T02:01:09.567Z,6.12
2019-05-15T02:03:38.665Z,6.12
2019-05-15T02:06:08.025Z,6.07
2019-05-15T02:08:34.920Z,6.05
2019-05-15T02:11:02.451Z,6.24
2019-05-15T02:13:29.615Z,6.14
2019-05-15T02:15:58.927Z,6.18
2019-05-15T02:18:28.348Z,6.23
2019-05-15T02:20:55.043Z,6.10
2019-05-15T02:23:22.893Z,6.01
2019-05-15T02:25:50.106Z,6.00
2019-05-15T02:28:18.337Z,5.98
2019-05-15T02:30:45.726Z,6.00
2019-05-15T02:33:12.830Z,5.98
2019-05-15T02:35:40.168Z,5.94
2019-05-15T02:38:10.083Z,6.00
2019-05-15T02:40:40.096Z,5.99
2019-05-15T02:43:05.845Z,5.95
2019-05-15T02:45:36.618Z,5.89
2019-05-15T02:48:02.058Z,5.86
2019-05-15T02:50:30.100Z,5.87
2019-05-15T02:53:00.254Z,5.86
2019-05-15T02:55:29.407Z,5.82
2019-05-15T02:57:55.336Z,5.80
2019-05-15T03:00:37.993Z,5.78
2019-05-15T03:02:51.680Z,5.73
2019-05-15T03:05:19.501Z,5.71
2019-05-15T03:07:49.293Z,5.71
2019-05-15T03:10:15.917Z,5.63
2019-05-15T03:12:43.380Z,5.55
2019-05-15T03:15:10.590Z,5.51
2019-05-15T03:17:40.281Z,5.53
2019-05-15T03:20:10.425Z,6.00
2019-05-15T03:22:39.861Z,5.90
2019-05-15T03:25:10.150Z,5.76
2019-05-15T03:27:35.425Z,5.78
2019-05-15T03:30:02.902Z,5.73
2019-05-15T03:32:42.198Z,5.64
2019-05-15T03:35:04.618Z,5.62
2019-05-15T03:37:33.159Z,5.67
2019-05-15T03:39:59.604Z,5.75
2019-05-15T03:42:29.301Z,5.74
2019-05-15T03:44:56.099Z,5.84
2019-05-15T03:47:23.336Z,5.72
2019-05-15T03:49:52.267Z,5.71
2019-05-15T03:52:19.755Z,5.69
2019-05-15T03:54:49.501Z,5.79
2019-05-15T03:57:20.087Z,5.75
2019-05-15T03:59:48.819Z,5.78
2019-05-15T04:02:14.873Z,5.81
2019-05-15T04:04:42.275Z,5.83
2019-05-15T04:07:09.570Z,5.86
2019-05-15T04:09:38.725Z,5.95
2019-05-15T04:12:09.192Z,6.03
2019-05-15T04:14:35.160Z,6.20
2019-05-15T04:17:02.581Z,6.24
2019-05-15T04:19:29.943Z,6.24
2019-05-15T04:21:59.997Z,6.26
2019-05-15T04:24:30.123Z,6.32
2019-05-15T04:26:59.893Z,6.79
2019-05-15T04:29:28.976Z,8.76
2019-05-15T04:32:02.526Z,8.88
2019-05-15T04:34:24.698Z,8.41
2019-05-15T04:36:51.891Z,8.00
2019-05-15T04:39:19.536Z,7.68
2019-05-15T04:41:49.752Z,7.50
2019-05-15T04:44:19.123Z,7.38
2019-05-15T04:46:45.313Z,7.40
2019-05-15T04:49:12.470Z,8.82
2019-05-15T04:51:39.675Z,11.27
2019-05-15T04:54:09.520Z,13.27
2019-05-15T04:56:35.963Z,15.03
2019-05-15T04:59:03.473Z,16.84
2019-05-15T05:01:30.771Z,17.67
2019-05-15T05:03:58.921Z,18.89
2019-05-15T05:06:29.242Z,20.58
2019-05-15T05:08:55.649Z,21.39
2019-05-15T05:11:24.274Z,23.12
2019-05-15T05:16:19.081Z,24.44
2019-05-15T05:18:48.877Z,24.84
2019-05-15T05:21:15.683Z,24.05
2019-05-15T05:23:42.866Z,24.19
2019-05-15T05:26:11.206Z,25.05
2019-05-15T05:28:38.505Z,25.80
2019-05-15T05:31:08.168Z,26.08
2019-05-15T05:33:35.043Z,27.70
2019-05-15T05:36:02.131Z,28.30
2019-05-15T05:38:29.488Z,29.21
2019-05-15T05:40:58.753Z,28.99
2019-05-15T05:43:25.932Z,28.42
2019-05-15T05:45:53.480Z,29.05
2019-05-15T05:48:20.642Z,29.20
2019-05-15T05:50:49.748Z,29.76
2019-05-15T05:53:16.909Z,29.50
2019-05-15T05:55:43.997Z,29.92
2019-05-15T05:58:11.172Z,30.32
2019-05-15T06:00:40.476Z,31.62
2019-05-15T06:03:08.638Z,33.00
2019-05-15T06:05:36.000Z,33.07
2019-05-15T06:08:03.993Z,33.07
2019-05-15T06:10:31.173Z,32.92
2019-05-15T06:12:58.786Z,34.17
2019-05-15T06:15:28.488Z,35.31
2019-05-15T06:17:55.241Z,35.73
2019-05-15T06:20:22.437Z,36.69
2019-05-15T06:22:49.803Z,36.86
2019-05-15T06:25:19.788Z,35.54
2019-05-15T06:27:48.166Z,36.35
2019-05-15T06:30:22.004Z,37.09
2019-05-15T06:33:03.816Z,33.37
2019-05-15T06:35:19.390Z,32.10
2019-05-15T06:37:48.417Z,30.56
2019-05-15T06:40:18.089Z,31.37
2019-05-15T06:42:45.031Z,33.23
2019-05-15T06:45:12.633Z,34.84
2019-05-15T06:47:39.720Z,34.88
2019-05-15T06:50:08.583Z,35.54
2019-05-15T06:52:38.074Z,35.50
2019-05-15T06:55:05.819Z,35.24
2019-05-15T06:57:33.050Z,36.14
2019-05-15T07:00:00.256Z,35.80
2019-05-15T07:02:28.508Z,35.16
2019-05-15T07:04:58.192Z,35.00
2019-05-15T07:07:25.101Z,36.34
2019-05-15T07:09:52.294Z,36.18
2019-05-15T07:12:19.658Z,37.77
2019-05-15T07:14:48.732Z,37.81
2019-05-15T07:17:17.750Z,36.35
2019-05-15T07:19:44.995Z,35.57
2019-05-15T07:22:12.207Z,33.96
2019-05-15T07:24:39.332Z,35.23
2019-05-15T07:27:08.028Z,37.38
2019-05-15T07:29:35.106Z,38.10
2019-05-15T07:32:02.352Z,38.02
2019-05-15T07:34:29.598Z,35.91
2019-05-15T07:36:58.939Z,36.95
2019-05-15T07:39:28.684Z,35.48
2019-05-15T07:41:57.716Z,35.17
2019-05-15T07:44:24.491Z,32.21
2019-05-15T07:46:51.678Z,31.33
2019-05-15T07:49:18.913Z,32.24
2019-05-15T07:51:48.251Z,33.67
2019-05-15T07:54:15.245Z,34.83
2019-05-15T07:56:42.468Z,33.88
2019-05-15T07:59:09.684Z,34.93
2019-05-15T08:01:38.676Z,37.19
2019-05-15T08:04:22.614Z,38.52
2019-05-15T08:06:35.103Z,40.59
2019-05-15T08:09:04.172Z,40.16
2019-05-15T08:11:31.456Z,37.38
2019-05-15T08:13:58.606Z,38.31
2019-05-15T08:16:25.678Z,39.44
2019-05-15T08:18:53.108Z,41.30
2019-05-15T08:21:20.265Z,42.36
2019-05-15T08:23:48.491Z,43.13
2019-05-15T08:26:17.792Z,42.89
2019-05-15T08:28:45.446Z,41.77
2019-05-15T08:31:12.697Z,40.89
2019-05-15T08:33:39.899Z,38.94
2019-05-15T08:36:08.397Z,39.48
2019-05-15T08:38:38.153Z,41.18
2019-05-15T08:41:04.958Z,42.08
2019-05-15T08:43:32.482Z,41.55
2019-05-15T08:45:59.612Z,41.70
2019-05-15T08:48:27.723Z,42.47
2019-05-15T08:50:55.076Z,42.79
2019-05-15T08:53:22.204Z,40.56
2019-05-15T08:55:49.475Z,40.37
2019-05-15T08:58:20.436Z,39.93
2019-05-15T09:00:45.640Z,39.70
2019-05-15T09:03:12.836Z,40.12
2019-05-15T09:05:39.894Z,40.13
2019-05-15T09:08:09.313Z,40.29
2019-05-15T09:10:38.573Z,39.42
2019-05-15T09:13:05.396Z,39.76
2019-05-15T09:15:32.685Z,38.32
2019-05-15T09:18:09.212Z,38.62
2019-05-15T09:20:28.854Z,39.44
2019-05-15T09:22:58.224Z,38.39
2019-05-15T09:25:25.236Z,35.54
2019-05-15T09:27:52.693Z,33.58
2019-05-15T09:30:19.926Z,33.58
2019-05-15T09:32:48.346Z,34.03
2019-05-15T09:35:18.747Z,34.20
2019-05-15T09:37:46.006Z,35.08
2019-05-15T09:40:13.351Z,35.01
2019-05-15T09:42:40.552Z,34.21
2019-05-15T09:45:08.880Z,33.25
2019-05-15T09:47:39.176Z,33.60
2019-05-15T09:50:05.652Z,32.70
2019-05-15T09:52:32.830Z,29.86
2019-05-15T09:55:00.088Z,28.18
2019-05-15T09:57:30.203Z,27.18
2019-05-15T09:59:58.660Z,26.14
2019-05-15T10:02:28.245Z,24.30
2019-05-15T10:05:06.059Z,21.99
2019-05-15T10:07:23.639Z,19.29
2019-05-15T10:09:52.438Z,17.26
2019-05-15T10:12:19.762Z,16.56
2019-05-15T10:14:49.204Z,15.87
2019-05-15T10:17:18.304Z,15.48
2019-05-15T10:19:45.202Z,14.96
2019-05-15T10:22:12.502Z,15.01
2019-05-15T10:24:40.078Z,15.12
2019-05-15T10:27:08.828Z,15.08
2019-05-15T10:29:36.083Z,14.82
2019-05-15T10:32:03.274Z,14.60
2019-05-15T10:34:30.752Z,14.69
2019-05-15T10:36:58.918Z,14.56
2019-05-15T10:39:28.675Z,14.60
2019-05-15T10:41:55.323Z,14.50
2019-05-15T10:44:22.544Z,14.42
2019-05-15T10:46:50.006Z,14.55
2019-05-15T10:49:18.834Z,14.22
2019-05-15T10:51:46.351Z,14.22
2019-05-15T10:54:13.940Z,14.32
2019-05-15T10:56:41.543Z,14.37
2019-05-15T10:59:09.006Z,14.40
2019-05-15T11:01:38.622Z,14.54
2019-05-15T11:04:05.327Z,14.63
2019-05-15T11:06:32.909Z,14.67
2019-05-15T11:09:00.003Z,14.59
2019-05-15T11:11:27.594Z,14.51
2019-05-15T11:13:54.698Z,14.30
2019-05-15T11:16:21.987Z,14.46
2019-05-15T11:18:49.162Z,14.30
2019-05-15T11:21:18.832Z,14.23
2019-05-15T11:23:45.526Z,14.39
2019-05-15T11:26:12.687Z,14.55
2019-05-15T11:28:40.238Z,14.73
2019-05-15T11:31:10.339Z,14.90
2019-05-15T11:33:38.493Z,14.93
2019-05-15T11:36:06.375Z,14.92
2019-05-15T11:38:33.650Z,14.90
2019-05-15T11:41:00.815Z,15.00
2019-05-15T11:43:29.127Z,15.18
2019-05-15T11:45:58.848Z,15.22
2019-05-15T11:48:26.087Z,15.31
2019-05-15T11:50:53.315Z,15.34
2019-05-15T11:53:20.590Z,15.35
2019-05-15T11:55:48.236Z,15.20
2019-05-15T11:58:15.498Z,15.37
2019-05-15T12:00:42.638Z,15.40
2019-05-15T12:03:09.809Z,15.43
2019-05-15T12:05:38.500Z,15.48
2019-05-15T12:08:08.501Z,15.62
2019-05-15T12:10:35.134Z,15.77
2019-05-15T12:13:02.611Z,15.59
2019-05-15T12:15:29.926Z,15.79
2019-05-15T12:17:59.148Z,15.94
2019-05-15T12:20:28.610Z,15.92
2019-05-15T12:22:55.594Z,16.01
2019-05-15T12:25:22.807Z,15.91
2019-05-15T12:27:50.326Z,15.92
2019-05-15T12:30:19.944Z,16.00
2019-05-15T12:35:16.304Z,15.75
2019-05-15T12:37:43.399Z,15.77
2019-05-15T13:00:10.564Z,16.13
2019-05-15T13:02:38.735Z,16.05
2019-05-15T13:05:08.374Z,15.99
2019-05-15T13:07:37.911Z,16.13
2019-05-15T13:10:08.477Z,16.21
2019-05-15T13:12:35.440Z,16.35
2019-05-15T13:15:02.847Z,16.66
2019-05-15T13:17:30.002Z,16.89
2019-05-15T13:19:58.606Z,16.89
2019-05-15T13:22:28.022Z,16.89
2019-05-15T13:24:55.215Z,16.60
2019-05-15T13:27:22.457Z,16.34
2019-05-15T13:29:49.805Z,15.90
2019-05-15T13:32:17.195Z,15.75
2019-05-15T13:34:44.316Z,15.63
2019-05-15T13:37:11.535Z,15.68
2019-05-15T13:39:39.222Z,15.72
2019-05-15T13:42:09.158Z,15.81
2019-05-15T13:44:38.612Z,15.93
2019-05-15T13:47:05.303Z,15.84
2019-05-15T13:49:32.807Z,15.63
2019-05-15T13:52:00.005Z,15.69
2019-05-15T13:54:28.609Z,15.70
2019-05-15T13:56:58.069Z,15.77
2019-05-15T13:59:25.098Z,15.80
2019-05-15T14:01:52.275Z,15.88
2019-05-15T14:04:19.514Z,15.71
2019-05-15T14:06:48.759Z,15.72
2019-05-15T14:09:15.762Z,15.79
2019-05-15T14:11:43.090Z,15.69
2019-05-15T14:14:10.248Z,15.82
2019-05-15T14:16:38.394Z,15.88
2019-05-15T14:19:08.142Z,15.89
2019-05-15T14:21:34.926Z,15.82
2019-05-15T14:24:02.158Z,15.91
2019-05-15T14:26:29.701Z,15.77
2019-05-15T14:28:58.701Z,15.85
2019-05-15T14:31:27.912Z,15.67
2019-05-15T14:33:57.925Z,15.80
2019-05-15T14:36:24.841Z,15.88
2019-05-15T14:38:52.315Z,16.01
2019-05-15T14:41:19.591Z,16.13
2019-05-15T14:43:48.460Z,16.29
2019-05-15T14:46:15.740Z,16.15
2019-05-15T14:48:43.215Z,16.30
2019-05-15T14:51:10.393Z,16.58
2019-05-15T14:53:38.636Z,16.63
2019-05-15T14:56:08.280Z,16.79
2019-05-15T14:58:35.061Z,17.12
2019-05-15T15:01:04.128Z,17.16
2019-05-15T15:03:31.266Z,17.40
2019-05-15T15:05:58.432Z,17.56
2019-05-15T15:08:25.727Z,17.39
2019-05-15T15:10:52.973Z,17.47
2019-05-15T15:13:20.147Z,17.84
2019-05-15T15:15:48.456Z,18.20
2019-05-15T15:18:15.842Z,18.50
2019-05-15T15:20:42.935Z,18.72
2019-05-15T15:23:10.146Z,18.55
2019-05-15T15:25:39.677Z,18.38
2019-05-15T15:28:08.279Z,18.41
2019-05-15T15:30:37.938Z,18.55
2019-05-15T15:33:04.843Z,18.42
2019-05-15T15:35:31.952Z,18.63
2019-05-15T15:37:59.178Z,18.53
2019-05-15T15:40:28.283Z,18.63
2019-05-15T15:42:57.915Z,18.71
2019-05-15T15:45:24.940Z,18.47
2019-05-15T15:47:52.098Z,18.40
2019-05-15T15:50:19.402Z,18.18
2019-05-15T15:52:48.800Z,18.15
2019-05-15T15:55:18.289Z,17.81
2019-05-15T15:57:45.137Z,17.54
2019-05-15T16:00:14.528Z,17.51
2019-05-15T16:02:41.953Z,17.45
2019-05-15T16:05:10.012Z,17.43
2019-05-15T16:07:38.009Z,17.11
2019-05-15T16:10:08.501Z,17.18
2019-05-15T16:12:38.456Z,17.30
2019-05-15T16:15:08.576Z,17.23
2019-05-15T16:17:35.410Z,17.13
2019-05-15T16:20:03.430Z,17.09
2019-05-15T16:22:30.818Z,17.19
2019-05-15T16:24:58.739Z,17.14
2019-05-15T16:27:28.708Z,16.96
2019-05-15T16:29:58.389Z,16.88
2019-05-15T16:32:25.317Z,16.87
2019-05-15T16:34:52.575Z,16.73
2019-05-15T16:37:19.777Z,16.44
2019-05-15T16:39:48.796Z,16.42
2019-05-15T16:42:18.072Z,16.23
2019-05-15T16:44:45.842Z,16.20
2019-05-15T16:47:13.127Z,16.07
2019-05-15T16:49:40.348Z,16.09
2019-05-15T16:52:09.254Z,16.09
2019-05-15T16:54:38.299Z,16.06
2019-05-15T16:57:05.752Z,15.98
2019-05-15T16:59:35.857Z,15.85
2019-05-15T17:02:02.562Z,15.73
2019-05-15T17:04:29.820Z,15.75
2019-05-15T17:06:58.524Z,15.64
2019-05-15T17:09:27.982Z,15.44
2019-05-15T17:11:55.200Z,15.24
2019-05-15T17:14:22.493Z,15.24
2019-05-15T17:16:49.741Z,15.27
2019-05-15T17:19:18.048Z,15.24
2019-05-15T17:21:48.005Z,15.18
2019-05-15T17:24:14.391Z,15.20
2019-05-15T17:26:41.607Z,15.17
2019-05-15T17:29:08.984Z,15.05
2019-05-15T17:31:37.994Z,15.00
2019-05-15T17:34:05.298Z,14.98
2019-05-15T17:36:32.638Z,14.90
2019-05-15T17:38:59.881Z,14.76
2019-05-15T17:41:28.563Z,14.71
2019-05-15T17:43:57.878Z,14.67
2019-05-15T17:46:25.139Z,14.57
2019-05-15T17:48:56.211Z,14.39
2019-05-15T17:51:21.511Z,14.20
2019-05-15T17:53:48.971Z,14.25
2019-05-15T17:56:16.224Z,14.11
2019-05-15T17:58:43.408Z,14.03
2019-05-15T18:01:10.559Z,13.99
2019-05-15T18:03:39.291Z,14.04
2019-05-15T18:06:06.605Z,13.90
2019-05-15T18:08:34.136Z,14.01
2019-05-15T18:11:01.425Z,13.82
2019-05-15T18:13:28.929Z,13.85
2019-05-15T18:16:01.880Z,13.69
2019-05-15T18:18:25.543Z,13.62
2019-05-15T18:20:52.687Z,13.67
2019-05-15T18:23:19.956Z,13.51
2019-05-15T18:25:49.179Z,13.47
2019-05-15T18:28:18.629Z,13.38
2019-05-15T18:30:47.815Z,13.40
2019-05-15T18:33:15.502Z,13.33
2019-05-15T18:35:42.692Z,13.24
2019-05-15T18:38:09.999Z,13.16
2019-05-15T18:40:38.425Z,13.12
2019-05-15T18:43:05.775Z,13.02
2019-05-15T18:45:33.259Z,13.07
2019-05-15T18:48:00.780Z,12.99
2019-05-15T18:50:28.569Z,12.90
2019-05-15T18:52:58.138Z,12.84
2019-05-15T18:55:25.033Z,12.81
2019-05-15T18:57:52.250Z,12.84
2019-05-15T19:00:19.584Z,12.88
2019-05-15T19:02:47.033Z,12.95
2019-05-15T19:05:14.902Z,12.83
2019-05-15T19:07:42.177Z,12.87
2019-05-15T19:10:09.724Z,12.82
2019-05-15T19:12:38.006Z,12.72
2019-05-15T19:15:09.174Z,12.81
2019-05-15T19:17:38.590Z,12.68
2019-05-15T19:20:08.278Z,12.54
2019-05-15T19:22:35.410Z,12.46
2019-05-15T19:25:03.623Z,12.40
2019-05-15T19:27:30.877Z,12.42
2019-05-15T19:29:59.072Z,12.41
2019-05-15T19:32:27.878Z,12.49
2019-05-15T19:34:55.373Z,12.42
2019-05-15T19:37:22.709Z,12.39
2019-05-15T19:39:49.863Z,12.34
2019-05-15T19:42:18.156Z,12.32
2019-05-15T19:44:45.818Z,12.30
2019-05-15T19:47:13.047Z,12.35
2019-05-15T19:49:40.368Z,12.34
2019-05-15T19:52:08.618Z,12.46
2019-05-15T19:54:37.823Z,12.33
2019-05-15T19:57:05.106Z,12.36
2019-05-15T19:59:32.443Z,12.24
2019-05-15T20:01:59.802Z,12.28
2019-05-15T20:04:27.873Z,12.19
2019-05-15T20:06:55.206Z,12.16
2019-05-15T20:09:23.366Z,12.19
2019-05-15T20:11:50.757Z,12.18
2019-05-15T20:14:18.361Z,12.31
2019-05-15T20:16:47.969Z,12.25
2019-05-15T20:19:14.878Z,12.27
2019-05-15T20:21:42.018Z,12.18
2019-05-15T20:24:09.480Z,12.13
2019-05-15T20:26:38.032Z,12.10
2019-05-15T20:29:05.903Z,12.11
2019-05-15T20:31:33.756Z,12.25
2019-05-15T20:34:05.663Z,12.16
2019-05-15T20:36:30.149Z,12.23
2019-05-15T20:38:58.841Z,12.22
2019-05-15T20:41:26.096Z,12.36
2019-05-15T20:43:53.321Z,12.22
2019-05-15T20:46:20.532Z,12.18
2019-05-15T20:48:48.745Z,12.11
2019-05-15T20:51:18.380Z,12.10
2019-05-15T20:53:45.456Z,12.06
2019-05-15T20:56:12.647Z,12.05
2019-05-15T20:58:40.047Z,12.02
2019-05-15T21:01:09.140Z,11.99
2019-05-15T21:03:36.982Z,11.99
2019-05-15T21:06:04.193Z,12.00
2019-05-15T21:08:31.301Z,12.08
2019-05-15T21:10:59.150Z,12.09
2019-05-15T21:13:27.806Z,11.99
2019-05-15T21:15:55.699Z,11.94
2019-05-15T21:18:24.063Z,11.96
2019-05-15T21:20:51.259Z,12.00
2019-05-15T21:23:18.495Z,12.00
2019-05-15T21:25:48.005Z,11.98
2019-05-15T21:28:14.785Z,12.00
2019-05-15T21:30:42.356Z,12.06
2019-05-15T21:33:09.443Z,12.17
2019-05-15T21:35:38.484Z,12.15
2019-05-15T21:38:05.775Z,12.15
2019-05-15T21:40:32.979Z,12.04
2019-05-15T21:43:00.201Z,11.96
2019-05-15T21:45:28.932Z,11.96
2019-05-15T21:47:58.794Z,11.95
2019-05-15T21:50:25.203Z,11.91
2019-05-15T21:52:52.721Z,11.88
2019-05-15T21:55:19.924Z,11.88
2019-05-15T21:57:47.461Z,11.89
2019-05-15T22:00:21.368Z,11.94
2019-05-15T22:02:49.558Z,11.97
2019-05-15T22:05:18.986Z,11.83
2019-05-15T22:07:47.895Z,11.73
2019-05-15T22:10:15.345Z,11.65
2019-05-15T22:12:42.577Z,11.61
2019-05-15T22:15:09.969Z,11.75
2019-05-15T22:17:38.933Z,11.66
2019-05-15T22:20:08.735Z,11.61
2019-05-15T22:22:35.650Z,11.53
2019-05-15T22:25:03.109Z,11.45
2019-05-15T22:27:31.481Z,11.38
2019-05-15T22:29:58.878Z,11.38
2019-05-15T22:32:26.088Z,11.39
2019-05-15T22:35:06.238Z,11.56
2019-05-15T22:37:22.100Z,11.59
2019-05-15T22:39:49.320Z,11.50
2019-05-15T22:42:18.311Z,11.40
2019-05-15T22:44:47.732Z,11.34
2019-05-15T22:47:14.733Z,11.31
2019-05-15T22:49:42.218Z,11.32
2019-05-15T22:52:09.729Z,11.35
2019-05-15T22:54:38.708Z,11.33
2019-05-15T22:57:06.225Z,11.33
2019-05-15T22:59:33.422Z,11.33
2019-05-15T23:02:00.612Z,11.30
2019-05-15T23:04:28.689Z,11.35
2019-05-15T23:06:55.989Z,11.36
2019-05-15T23:09:23.495Z,11.36
2019-05-15T23:11:50.684Z,11.34
2019-05-15T23:14:18.378Z,11.24
2019-05-15T23:16:48.143Z,11.18
2019-05-15T23:19:14.642Z,11.20
2019-05-15T23:21:41.827Z,11.17
2019-05-15T23:24:08.916Z,11.15
2019-05-15T23:26:36.104Z,11.12
2019-05-15T23:29:03.325Z,11.10
2019-05-15T23:31:30.590Z,11.10
2019-05-15T23:33:57.763Z,11.06
2019-05-15T23:36:24.911Z,11.05
2019-05-15T23:38:52.380Z,11.04
2019-05-15T23:41:19.537Z,11.09
2019-05-15T23:43:48.288Z,11.07
2019-05-15T23:46:15.579Z,11.04
2019-05-15T23:48:42.741Z,11.03
2019-05-15T23:51:10.214Z,11.06
2019-05-15T23:53:37.498Z,11.05
2019-05-15T23:56:04.648Z,11.05
2019-05-15T23:58:31.825Z,11.04
